sensor_id;sensor_type;location;lat;lon;timestamp;pressure;altitude;pressure_sealevel;temperature;humidity
17054;BME280;8643;48.824;11.422;2023-02-04T00:00:43;97719.31;;;4.11;100.00
17054;BME280;8643;48.824;11.422;2023-02-04T00:03:12;97726.88;;;4.09;100.00
17054;BME280;8643;48.824;11.422;2023-02-04T00:05:41;97738.78;;;4.02;100.00
17054;BME280;8643;48.824;11.422;2023-02-04T00:08:10;97726.88;;;3.98;100.00
17054;BME280;8643;48.824;11.422;2023-02-04T00:10:39;97748.28;;;4.00;100.00
17054;BME280;8643;48.824;11.422;2023-02-04T00:13:07;97748.00;;;3.91;100.00
17054;BME280;8643;48.824;11.422;2023-02-04T00:15:40;97742.56;;;3.86;100.00
17054;BME280;8643;48.824;11.422;2023-02-04T00:18:09;97739.31;;;3.84;100.00
17054;BME280;8643;48.824;11.422;2023-02-04T00:20:38;97754.22;;;3.81;100.00
17054;BME280;8643;48.824;11.422;2023-02-04T00:23:06;97758.53;;;3.77;100.00
17054;BME280;8643;48.824;11.422;2023-02-04T00:25:35;97762.31;;;3.76;100.00
17054;BME280;8643;48.824;11.422;2023-02-04T00:28:04;97755.28;;;3.75;100.00
17054;BME280;8643;48.824;11.422;2023-02-04T00:30:32;97768.00;;;3.75;100.00
17054;BME280;8643;48.824;11.422;2023-02-04T00:33:03;97773.16;;;3.76;100.00
17054;BME280;8643;48.824;11.422;2023-02-04T00:35:31;97760.44;;;3.82;100.00
17054;BME280;8643;48.824;11.422;2023-02-04T00:38:00;97769.13;;;3.94;100.00
17054;BME280;8643;48.824;11.422;2023-02-04T00:40:29;97784.03;;;3.92;100.00
17054;BME280;8643;48.824;11.422;2023-02-04T00:42:58;97784.56;;;3.94;100.00
17054;BME280;8643;48.824;11.422;2023-02-04T00:45:27;97795.69;;;3.97;100.00
17054;BME280;8643;48.824;11.422;2023-02-04T00:47:55;97775.66;;;3.93;100.00
17054;BME280;8643;48.824;11.422;2023-02-04T00:50:25;97795.16;;;3.95;100.00
17054;BME280;8643;48.824;11.422;2023-02-04T00:52:54;97790.53;;;3.91;100.00
17054;BME280;8643;48.824;11.422;2023-02-04T00:55:23;97788.59;;;3.76;100.00
17054;BME280;8643;48.824;11.422;2023-02-04T00:57:51;97805.97;;;3.80;100.00
17054;BME280;8643;48.824;11.422;2023-02-04T01:00:20;97801.06;;;3.77;100.00
17054;BME280;8643;48.824;11.422;2023-02-04T01:02:48;97809.44;;;3.70;100.00
17054;BME280;8643;48.824;11.422;2023-02-04T01:05:20;97808.06;;;3.62;100.00
17054;BME280;8643;48.824;11.422;2023-02-04T01:07:50;97812.41;;;3.63;100.00
17054;BME280;8643;48.824;11.422;2023-02-04T01:10:18;97809.41;;;3.65;100.00
17054;BME280;8643;48.824;11.422;2023-02-04T01:12:51;97819.97;;;3.66;100.00
17054;BME280;8643;48.824;11.422;2023-02-04T01:15:20;97807.53;;;3.60;100.00
17054;BME280;8643;48.824;11.422;2023-02-04T01:17:49;97826.16;;;3.57;100.00
17054;BME280;8643;48.824;11.422;2023-02-04T01:20:18;97836.19;;;3.56;100.00
17054;BME280;8643;48.824;11.422;2023-02-04T01:22:48;97841.38;;;3.63;100.00
17054;BME280;8643;48.824;11.422;2023-02-04T01:25:17;97839.78;;;3.67;100.00
17054;BME280;8643;48.824;11.422;2023-02-04T01:27:46;97838.41;;;3.64;100.00
17054;BME280;8643;48.824;11.422;2023-02-04T01:30:15;97841.09;;;3.64;100.00
17054;BME280;8643;48.824;11.422;2023-02-04T01:32:43;97850.34;;;3.63;100.00
17054;BME280;8643;48.824;11.422;2023-02-04T01:35:12;97862.47;;;3.56;100.00
17054;BME280;8643;48.824;11.422;2023-02-04T01:37:41;97860.84;;;3.55;100.00
17054;BME280;8643;48.824;11.422;2023-02-04T01:40:11;97876.03;;;3.56;100.00
17054;BME280;8643;48.824;11.422;2023-02-04T01:42:41;97880.31;;;3.52;100.00
17054;BME280;8643;48.824;11.422;2023-02-04T01:45:10;97873.81;;;3.47;100.00
17054;BME280;8643;48.824;11.422;2023-02-04T01:47:39;97873.28;;;3.51;100.00
17054;BME280;8643;48.824;11.422;2023-02-04T01:50:10;97880.06;;;3.58;100.00
17054;BME280;8643;48.824;11.422;2023-02-04T01:52:42;97876.53;;;3.53;100.00
17054;BME280;8643;48.824;11.422;2023-02-04T01:55:15;97876.53;;;3.47;100.00
17054;BME280;8643;48.824;11.422;2023-02-04T01:57:46;97888.94;;;3.43;100.00
17054;BME280;8643;48.824;11.422;2023-02-04T02:00:18;97885.13;;;3.34;100.00
17054;BME280;8643;48.824;11.422;2023-02-04T02:02:51;97898.97;;;3.43;100.00
17054;BME280;8643;48.824;11.422;2023-02-04T02:05:24;97892.16;;;3.40;100.00
17054;BME280;8643;48.824;11.422;2023-02-04T02:07:56;97910.06;;;3.41;100.00
17054;BME280;8643;48.824;11.422;2023-02-04T02:10:25;97898.97;;;3.43;100.00
17054;BME280;8643;48.824;11.422;2023-02-04T02:13:00;97904.13;;;3.44;100.00
17054;BME280;8643;48.824;11.422;2023-02-04T02:15:29;97917.91;;;3.43;100.00
17054;BME280;8643;48.824;11.422;2023-02-04T02:17:59;97910.56;;;3.38;100.00
17054;BME280;8643;48.824;11.422;2023-02-04T02:20:28;97914.59;;;3.36;100.00
17054;BME280;8643;48.824;11.422;2023-02-04T02:23:09;97920.63;;;3.43;100.00
17054;BME280;8643;48.824;11.422;2023-02-04T02:25:44;97928.22;;;3.46;100.00
17054;BME280;8643;48.824;11.422;2023-02-04T02:28:15;97935.84;;;3.54;100.00
17054;BME280;8643;48.824;11.422;2023-02-04T02:30:50;97935.06;;;3.54;100.00
17054;BME280;8643;48.824;11.422;2023-02-04T02:33:20;97950.75;;;3.57;100.00
17054;BME280;8643;48.824;11.422;2023-02-04T02:35:48;97941.06;;;3.66;100.00
17054;BME280;8643;48.824;11.422;2023-02-04T02:38:18;97952.41;;;3.63;100.00
17054;BME280;8643;48.824;11.422;2023-02-04T02:40:49;97942.69;;;3.62;100.00
17054;BME280;8643;48.824;11.422;2023-02-04T02:43:22;97948.13;;;3.67;100.00
17054;BME280;8643;48.824;11.422;2023-02-04T02:45:53;97953.03;;;3.70;100.00
17054;BME280;8643;48.824;11.422;2023-02-04T02:48:22;97958.44;;;3.70;100.00
17054;BME280;8643;48.824;11.422;2023-02-04T02:50:52;97957.94;;;3.78;100.00
17054;BME280;8643;48.824;11.422;2023-02-04T02:53:21;97955.75;;;3.75;100.00
17054;BME280;8643;48.824;11.422;2023-02-04T02:55:51;97951.91;;;3.66;100.00
17054;BME280;8643;48.824;11.422;2023-02-04T02:58:27;97968.44;;;3.70;100.00
17054;BME280;8643;48.824;11.422;2023-02-04T03:00:59;97969.81;;;3.72;100.00
17054;BME280;8643;48.824;11.422;2023-02-04T03:03:32;97963.84;;;3.70;100.00
17054;BME280;8643;48.824;11.422;2023-02-04T03:06:06;97981.94;;;3.64;100.00
17054;BME280;8643;48.824;11.422;2023-02-04T03:08:37;97980.06;;;3.65;100.00
17054;BME280;8643;48.824;11.422;2023-02-04T03:11:08;97990.09;;;3.64;100.00
17054;BME280;8643;48.824;11.422;2023-02-04T03:13:37;97991.44;;;3.62;100.00
17054;BME280;8643;48.824;11.422;2023-02-04T03:16:07;97989.78;;;3.61;100.00
17054;BME280;8643;48.824;11.422;2023-02-04T03:18:37;97990.31;;;3.58;100.00
17054;BME280;8643;48.824;11.422;2023-02-04T03:21:07;97988.13;;;3.55;100.00
17054;BME280;8643;48.824;11.422;2023-02-04T03:23:36;97980.53;;;3.57;100.00
17054;BME280;8643;48.824;11.422;2023-02-04T03:26:07;97983.81;;;3.54;100.00
17054;BME280;8643;48.824;11.422;2023-02-04T03:28:39;97990.22;;;3.42;100.00
17054;BME280;8643;48.824;11.422;2023-02-04T03:31:08;98005.09;;;3.45;100.00
17054;BME280;8643;48.824;11.422;2023-02-04T03:33:37;98001.59;;;3.44;100.00
17054;BME280;8643;48.824;11.422;2023-02-04T03:36:07;98003.94;;;3.36;100.00
17054;BME280;8643;48.824;11.422;2023-02-04T03:38:35;97997.69;;;3.30;100.00
17054;BME280;8643;48.824;11.422;2023-02-04T03:41:04;98006.06;;;3.28;100.00
17054;BME280;8643;48.824;11.422;2023-02-04T03:43:34;97995.53;;;3.32;100.00
17054;BME280;8643;48.824;11.422;2023-02-04T03:46:02;97986.06;;;3.29;100.00
17054;BME280;8643;48.824;11.422;2023-02-04T03:48:31;98001.16;;;3.25;100.00
17054;BME280;8643;48.824;11.422;2023-02-04T03:50:59;98005.78;;;3.25;100.00
17054;BME280;8643;48.824;11.422;2023-02-04T03:53:28;98003.34;;;3.28;100.00
17054;BME280;8643;48.824;11.422;2023-02-04T03:55:56;98013.63;;;3.26;100.00
17054;BME280;8643;48.824;11.422;2023-02-04T03:58:25;98016.91;;;3.28;100.00
17054;BME280;8643;48.824;11.422;2023-02-04T04:00:55;98016.03;;;3.23;100.00
17054;BME280;8643;48.824;11.422;2023-02-04T04:03:23;98024.69;;;3.20;100.00
17054;BME280;8643;48.824;11.422;2023-02-04T04:05:52;98023.34;;;3.22;100.00
17054;BME280;8643;48.824;11.422;2023-02-04T04:08:20;98029.50;;;3.18;100.00
17054;BME280;8643;48.824;11.422;2023-02-04T04:10:48;98028.97;;;3.16;100.00
17054;BME280;8643;48.824;11.422;2023-02-04T04:13:17;98035.25;;;3.21;100.00
17054;BME280;8643;48.824;11.422;2023-02-04T04:15:45;98039.78;;;3.16;100.00
17054;BME280;8643;48.824;11.422;2023-02-04T04:18:15;98041.69;;;3.15;100.00
17054;BME280;8643;48.824;11.422;2023-02-04T04:20:44;98046.53;;;3.13;100.00
17054;BME280;8643;48.824;11.422;2023-02-04T04:23:13;98044.09;;;3.11;100.00
17054;BME280;8643;48.824;11.422;2023-02-04T04:25:41;98047.34;;;3.14;100.00
17054;BME280;8643;48.824;11.422;2023-02-04T04:28:10;98055.44;;;3.08;100.00
17054;BME280;8643;48.824;11.422;2023-02-04T04:30:39;98061.66;;;3.09;100.00
17054;BME280;8643;48.824;11.422;2023-02-04T04:33:07;98057.38;;;3.13;100.00
17054;BME280;8643;48.824;11.422;2023-02-04T04:35:37;98070.31;;;3.11;100.00
17054;BME280;8643;48.824;11.422;2023-02-04T04:38:06;98061.09;;;3.07;100.00
17054;BME280;8643;48.824;11.422;2023-02-04T04:40:34;98070.03;;;3.07;100.00
17054;BME280;8643;48.824;11.422;2023-02-04T04:43:06;98079.84;;;3.14;100.00
17054;BME280;8643;48.824;11.422;2023-02-04T04:45:35;98077.63;;;3.10;100.00
17054;BME280;8643;48.824;11.422;2023-02-04T04:48:04;98083.03;;;3.10;100.00
17054;BME280;8643;48.824;11.422;2023-02-04T04:50:32;98089.59;;;3.15;100.00
17054;BME280;8643;48.824;11.422;2023-02-04T04:53:02;98092.03;;;3.16;100.00
17054;BME280;8643;48.824;11.422;2023-02-04T04:55:30;98091.97;;;3.11;100.00
17054;BME280;8643;48.824;11.422;2023-02-04T04:58:00;98096.88;;;3.14;100.00
17054;BME280;8643;48.824;11.422;2023-02-04T05:00:28;98119.88;;;3.11;100.00
17054;BME280;8643;48.824;11.422;2023-02-04T05:02:57;98127.41;;;3.09;100.00
17054;BME280;8643;48.824;11.422;2023-02-04T05:05:26;98123.84;;;3.04;100.00
17054;BME280;8643;48.824;11.422;2023-02-04T05:07:54;98120.06;;;3.05;100.00
17054;BME280;8643;48.824;11.422;2023-02-04T05:10:25;98119.25;;;3.04;100.00
17054;BME280;8643;48.824;11.422;2023-02-04T05:12:57;98126.59;;;3.09;100.00
17054;BME280;8643;48.824;11.422;2023-02-04T05:15:26;98127.66;;;3.08;100.00
17054;BME280;8643;48.824;11.422;2023-02-04T05:17:54;98137.13;;;3.05;100.00
17054;BME280;8643;48.824;11.422;2023-02-04T05:20:24;98135.97;;;3.01;100.00
17054;BME280;8643;48.824;11.422;2023-02-04T05:22:53;98137.06;;;3.00;100.00
17054;BME280;8643;48.824;11.422;2023-02-04T05:25:24;98145.50;;;3.04;100.00
17054;BME280;8643;48.824;11.422;2023-02-04T05:27:52;98143.09;;;3.07;100.00
17054;BME280;8643;48.824;11.422;2023-02-04T05:30:21;98143.34;;;3.06;100.00
17054;BME280;8643;48.824;11.422;2023-02-04T05:32:50;98150.09;;;3.03;100.00
17054;BME280;8643;48.824;11.422;2023-02-04T05:35:18;98154.66;;;3.03;100.00
17054;BME280;8643;48.824;11.422;2023-02-04T05:37:47;98156.94;;;3.11;100.00
17054;BME280;8643;48.824;11.422;2023-02-04T05:40:16;98158.56;;;3.12;100.00
17054;BME280;8643;48.824;11.422;2023-02-04T05:42:46;98153.16;;;3.12;100.00
17054;BME280;8643;48.824;11.422;2023-02-04T05:45:15;98162.69;;;3.15;100.00
17054;BME280;8643;48.824;11.422;2023-02-04T05:47:45;98165.88;;;3.11;100.00
17054;BME280;8643;48.824;11.422;2023-02-04T05:50:14;98175.56;;;3.07;100.00
17054;BME280;8643;48.824;11.422;2023-02-04T05:52:42;98185.34;;;3.08;100.00
17054;BME280;8643;48.824;11.422;2023-02-04T05:55:11;98195.31;;;3.08;100.00
17054;BME280;8643;48.824;11.422;2023-02-04T05:57:40;98194.56;;;3.12;100.00
17054;BME280;8643;48.824;11.422;2023-02-04T06:00:12;98204.59;;;3.12;100.00
17054;BME280;8643;48.824;11.422;2023-02-04T06:02:41;98204.59;;;3.12;100.00
17054;BME280;8643;48.824;11.422;2023-02-04T06:05:09;98205.66;;;3.11;100.00
17054;BME280;8643;48.824;11.422;2023-02-04T06:07:38;98205.66;;;3.11;100.00
17054;BME280;8643;48.824;11.422;2023-02-04T06:10:06;98215.66;;;3.10;100.00
17054;BME280;8643;48.824;11.422;2023-02-04T06:12:35;98215.09;;;3.08;100.00
17054;BME280;8643;48.824;11.422;2023-02-04T06:15:05;98213.69;;;3.06;100.00
17054;BME280;8643;48.824;11.422;2023-02-04T06:17:35;98217.81;;;3.08;100.00
17054;BME280;8643;48.824;11.422;2023-02-04T06:20:04;98220.81;;;3.12;100.00
17054;BME280;8643;48.824;11.422;2023-02-04T06:22:33;98230.75;;;3.06;100.00
17054;BME280;8643;48.824;11.422;2023-02-04T06:25:01;98229.88;;;3.01;100.00
17054;BME280;8643;48.824;11.422;2023-02-04T06:27:30;98240.72;;;3.01;100.00
17054;BME280;8643;48.824;11.422;2023-02-04T06:29:58;98252.78;;;2.93;100.00
17054;BME280;8643;48.824;11.422;2023-02-04T06:32:27;98256.50;;;2.87;100.00
17054;BME280;8643;48.824;11.422;2023-02-04T06:35:00;98248.53;;;2.80;100.00
17054;BME280;8643;48.824;11.422;2023-02-04T06:37:29;98257.91;;;2.72;100.00
17054;BME280;8643;48.824;11.422;2023-02-04T06:39:57;98270.03;;;2.70;100.00
17054;BME280;8643;48.824;11.422;2023-02-04T06:42:25;98268.38;;;2.69;100.00
17054;BME280;8643;48.824;11.422;2023-02-04T06:44:54;98273.56;;;2.70;100.00
17054;BME280;8643;48.824;11.422;2023-02-04T06:47:22;98281.59;;;2.65;100.00
17054;BME280;8643;48.824;11.422;2023-02-04T06:49:50;98285.88;;;2.61;100.00
17054;BME280;8643;48.824;11.422;2023-02-04T06:52:20;98281.84;;;2.64;100.00
17054;BME280;8643;48.824;11.422;2023-02-04T06:54:49;98288.66;;;2.66;100.00
17054;BME280;8643;48.824;11.422;2023-02-04T06:57:17;98298.41;;;2.67;100.00
17054;BME280;8643;48.824;11.422;2023-02-04T06:59:46;98302.66;;;2.63;100.00
17054;BME280;8643;48.824;11.422;2023-02-04T07:02:14;98303.16;;;2.60;100.00
17054;BME280;8643;48.824;11.422;2023-02-04T07:04:44;98298.81;;;2.59;100.00
17054;BME280;8643;48.824;11.422;2023-02-04T07:07:13;98299.97;;;2.63;100.00
17054;BME280;8643;48.824;11.422;2023-02-04T07:09:43;98307.81;;;2.65;100.00
17054;BME280;8643;48.824;11.422;2023-02-04T07:12:12;98312.00;;;2.72;100.00
17054;BME280;8643;48.824;11.422;2023-02-04T07:14:42;98319.47;;;2.65;100.00
17054;BME280;8643;48.824;11.422;2023-02-04T07:17:11;98328.91;;;2.63;100.00
17054;BME280;8643;48.824;11.422;2023-02-04T07:19:39;98337.66;;;2.70;100.00
17054;BME280;8643;48.824;11.422;2023-02-04T07:22:08;98339.06;;;2.72;100.00
17054;BME280;8643;48.824;11.422;2023-02-04T07:24:37;98338.88;;;2.62;100.00
17054;BME280;8643;48.824;11.422;2023-02-04T07:27:06;98333.47;;;2.62;100.00
17054;BME280;8643;48.824;11.422;2023-02-04T07:29:35;98343.00;;;2.65;100.00
17054;BME280;8643;48.824;11.422;2023-02-04T07:32:04;98335.13;;;2.63;100.00
17054;BME280;8643;48.824;11.422;2023-02-04T07:34:32;98345.13;;;2.63;100.00
17054;BME280;8643;48.824;11.422;2023-02-04T07:37:01;98358.28;;;2.59;100.00
17054;BME280;8643;48.824;11.422;2023-02-04T07:39:29;98369.72;;;2.61;100.00
17054;BME280;8643;48.824;11.422;2023-02-04T07:41:58;98374.59;;;2.47;100.00
17054;BME280;8643;48.824;11.422;2023-02-04T07:44:35;98382.38;;;2.27;100.00
17054;BME280;8643;48.824;11.422;2023-02-04T07:47:03;98386.75;;;2.16;100.00
17054;BME280;8643;48.824;11.422;2023-02-04T07:49:32;98393.69;;;2.12;100.00
17054;BME280;8643;48.824;11.422;2023-02-04T07:52:00;98397.47;;;2.11;100.00
17054;BME280;8643;48.824;11.422;2023-02-04T07:54:29;98399.78;;;2.19;100.00
17054;BME280;8643;48.824;11.422;2023-02-04T07:56:57;98408.28;;;2.11;100.00
17054;BME280;8643;48.824;11.422;2023-02-04T07:59:26;98410.41;;;2.09;100.00
17054;BME280;8643;48.824;11.422;2023-02-04T08:01:55;98413.28;;;2.48;100.00
17054;BME280;8643;48.824;11.422;2023-02-04T08:04:24;98418.38;;;2.61;100.00
17054;BME280;8643;48.824;11.422;2023-02-04T08:06:52;98416.59;;;3.01;100.00
17054;BME280;8643;48.824;11.422;2023-02-04T08:09:20;98424.63;;;3.29;100.00
17054;BME280;8643;48.824;11.422;2023-02-04T08:11:50;98421.06;;;3.46;100.00
17054;BME280;8643;48.824;11.422;2023-02-04T08:14:22;98439.69;;;3.59;100.00
17054;BME280;8643;48.824;11.422;2023-02-04T08:16:51;98440.00;;;4.07;100.00
17054;BME280;8643;48.824;11.422;2023-02-04T08:19:20;98444.66;;;4.61;100.00
17054;BME280;8643;48.824;11.422;2023-02-04T08:21:49;98445.53;;;4.39;100.00
17054;BME280;8643;48.824;11.422;2023-02-04T08:24:17;98445.75;;;3.89;100.00
17054;BME280;8643;48.824;11.422;2023-02-04T08:26:46;98447.97;;;3.53;100.00
17054;BME280;8643;48.824;11.422;2023-02-04T08:29:15;98449.72;;;3.42;100.00
17054;BME280;8643;48.824;11.422;2023-02-04T08:31:43;98445.22;;;3.30;100.00
17054;BME280;8643;48.824;11.422;2023-02-04T08:34:14;98451.69;;;3.12;100.00
17054;BME280;8643;48.824;11.422;2023-02-04T08:36:43;98455.06;;;2.86;100.00
17054;BME280;8643;48.824;11.422;2023-02-04T08:39:12;98456.38;;;3.00;100.00
17054;BME280;8643;48.824;11.422;2023-02-04T08:41:40;98460.06;;;3.11;100.00
17054;BME280;8643;48.824;11.422;2023-02-04T08:44:09;98463.50;;;3.23;100.00
17054;BME280;8643;48.824;11.422;2023-02-04T08:46:37;98469.41;;;3.37;100.00
17054;BME280;8643;48.824;11.422;2023-02-04T08:49:06;98486.50;;;3.38;100.00
17054;BME280;8643;48.824;11.422;2023-02-04T08:51:34;98477.69;;;3.30;100.00
17054;BME280;8643;48.824;11.422;2023-02-04T08:54:04;98488.13;;;3.22;100.00
17054;BME280;8643;48.824;11.422;2023-02-04T08:56:33;98491.25;;;3.47;100.00
17054;BME280;8643;48.824;11.422;2023-02-04T08:59:04;98489.91;;;4.06;100.00
17054;BME280;8643;48.824;11.422;2023-02-04T09:01:32;98493.66;;;5.36;100.00
17054;BME280;8643;48.824;11.422;2023-02-04T09:04:01;98494.34;;;5.54;100.00
17054;BME280;8643;48.824;11.422;2023-02-04T09:06:29;98488.94;;;5.59;100.00
17054;BME280;8643;48.824;11.422;2023-02-04T09:08:58;98502.16;;;5.12;100.00
17054;BME280;8643;48.824;11.422;2023-02-04T09:11:27;98508.88;;;4.50;100.00
17054;BME280;8643;48.824;11.422;2023-02-04T09:13:56;98508.84;;;3.84;100.00
17054;BME280;8643;48.824;11.422;2023-02-04T09:16:24;98519.22;;;3.70;100.00
17054;BME280;8643;48.824;11.422;2023-02-04T09:18:53;98524.94;;;4.13;100.00
17054;BME280;8643;48.824;11.422;2023-02-04T09:21:22;98524.66;;;4.53;100.00
17054;BME280;8643;48.824;11.422;2023-02-04T09:23:50;98532.22;;;4.29;100.00
17054;BME280;8643;48.824;11.422;2023-02-04T09:26:19;98529.28;;;4.14;100.00
17054;BME280;8643;48.824;11.422;2023-02-04T09:28:49;98531.75;;;5.09;100.00
17054;BME280;8643;48.824;11.422;2023-02-04T09:31:17;98527.38;;;6.15;100.00
17054;BME280;8643;48.824;11.422;2023-02-04T09:33:46;98533.38;;;6.81;100.00
17054;BME280;8643;48.824;11.422;2023-02-04T09:36:14;98530.75;;;6.38;100.00
17054;BME280;8643;48.824;11.422;2023-02-04T09:38:43;98532.03;;;6.93;96.92
17054;BME280;8643;48.824;11.422;2023-02-04T09:41:12;98539.31;;;6.67;99.07
17054;BME280;8643;48.824;11.422;2023-02-04T09:43:43;98550.84;;;6.27;98.55
17054;BME280;8643;48.824;11.422;2023-02-04T09:46:20;98557.31;;;5.45;100.00
17054;BME280;8643;48.824;11.422;2023-02-04T09:48:50;98570.81;;;4.58;100.00
17054;BME280;8643;48.824;11.422;2023-02-04T09:51:22;98570.47;;;4.50;100.00
17054;BME280;8643;48.824;11.422;2023-02-04T09:53:59;98572.88;;;4.29;100.00
17054;BME280;8643;48.824;11.422;2023-02-04T09:56:30;98577.22;;;4.08;100.00
17054;BME280;8643;48.824;11.422;2023-02-04T09:58:58;98586.56;;;4.17;100.00
17054;BME280;8643;48.824;11.422;2023-02-04T10:01:28;98589.59;;;4.04;100.00
17054;BME280;8643;48.824;11.422;2023-02-04T10:04:00;98592.69;;;3.74;100.00
17054;BME280;8643;48.824;11.422;2023-02-04T10:06:29;98590.69;;;4.03;100.00
17054;BME280;8643;48.824;11.422;2023-02-04T10:08:59;98590.94;;;3.84;100.00
17054;BME280;8643;48.824;11.422;2023-02-04T10:11:34;98597.09;;;3.63;100.00
17054;BME280;8643;48.824;11.422;2023-02-04T10:14:03;98597.13;;;3.80;100.00
17054;BME280;8643;48.824;11.422;2023-02-04T10:16:34;98604.00;;;3.88;100.00
17054;BME280;8643;48.824;11.422;2023-02-04T10:19:14;98599.16;;;4.07;100.00
17054;BME280;8643;48.824;11.422;2023-02-04T10:21:44;98603.16;;;4.04;100.00
17054;BME280;8643;48.824;11.422;2023-02-04T10:24:15;98602.72;;;4.12;100.00
17054;BME280;8643;48.824;11.422;2023-02-04T10:26:45;98613.03;;;3.93;100.00
17054;BME280;8643;48.824;11.422;2023-02-04T10:29:17;98611.28;;;4.21;100.00
17054;BME280;8643;48.824;11.422;2023-02-04T10:31:49;98603.47;;;4.25;100.00
17054;BME280;8643;48.824;11.422;2023-02-04T10:34:20;98608.44;;;4.11;100.00
17054;BME280;8643;48.824;11.422;2023-02-04T10:36:51;98604.41;;;3.79;100.00
17054;BME280;8643;48.824;11.422;2023-02-04T10:39:24;98608.25;;;4.00;100.00
17054;BME280;8643;48.824;11.422;2023-02-04T10:41:55;98614.91;;;4.49;100.00
17054;BME280;8643;48.824;11.422;2023-02-04T10:44:27;98618.09;;;4.23;100.00
17054;BME280;8643;48.824;11.422;2023-02-04T10:47:03;98620.41;;;4.54;100.00
17054;BME280;8643;48.824;11.422;2023-02-04T10:49:33;98610.06;;;4.51;100.00
17054;BME280;8643;48.824;11.422;2023-02-04T10:52:14;98609.19;;;4.28;100.00
17054;BME280;8643;48.824;11.422;2023-02-04T10:54:43;98611.25;;;4.38;100.00
17054;BME280;8643;48.824;11.422;2023-02-04T10:57:18;98614.97;;;4.54;100.00
17054;BME280;8643;48.824;11.422;2023-02-04T10:59:52;98605.44;;;4.51;100.00
17054;BME280;8643;48.824;11.422;2023-02-04T11:02:40;98609.06;;;4.57;100.00
17054;BME280;8643;48.824;11.422;2023-02-04T11:05:13;98604.28;;;4.25;100.00
17054;BME280;8643;48.824;11.422;2023-02-04T11:07:44;98609.13;;;4.40;100.00
17054;BME280;8643;48.824;11.422;2023-02-04T11:10:16;98596.69;;;4.44;98.90
17054;BME280;8643;48.824;11.422;2023-02-04T11:12:59;98591.72;;;4.58;100.00
17054;BME280;8643;48.824;11.422;2023-02-04T11:15:42;98598.81;;;4.42;100.00
17054;BME280;8643;48.824;11.422;2023-02-04T11:18:27;98592.69;;;4.74;100.00
17054;BME280;8643;48.824;11.422;2023-02-04T11:20:58;98603.66;;;5.06;100.00
17054;BME280;8643;48.824;11.422;2023-02-04T11:23:35;98600.16;;;4.84;98.25
17054;BME280;8643;48.824;11.422;2023-02-04T11:26:10;98592.59;;;5.13;99.45
17054;BME280;8643;48.824;11.422;2023-02-04T11:28:55;98593.94;;;5.10;96.90
17054;BME280;8643;48.824;11.422;2023-02-04T11:32:00;98590.69;;;5.73;97.80
17054;BME280;8643;48.824;11.422;2023-02-04T11:34:46;98590.53;;;5.53;96.65
17054;BME280;8643;48.824;11.422;2023-02-04T11:37:33;98587.13;;;5.08;100.00
17054;BME280;8643;48.824;11.422;2023-02-04T11:40:20;98587.78;;;4.93;100.00
17054;BME280;8643;48.824;11.422;2023-02-04T11:42:57;98589.09;;;4.90;99.51
17054;BME280;8643;48.824;11.422;2023-02-04T11:45:31;98601.28;;;4.88;99.98
17054;BME280;8643;48.824;11.422;2023-02-04T11:48:03;98585.91;;;5.53;100.00
17054;BME280;8643;48.824;11.422;2023-02-04T11:50:39;98600.75;;;5.13;96.33
17054;BME280;8643;48.824;11.422;2023-02-04T11:53:10;98597.66;;;4.55;100.00
17054;BME280;8643;48.824;11.422;2023-02-04T11:55:45;98604.28;;;4.25;99.95
17054;BME280;8643;48.824;11.422;2023-02-04T11:58:17;98593.69;;;4.23;100.00
17054;BME280;8643;48.824;11.422;2023-02-04T12:00:46;98596.31;;;4.18;100.00
17054;BME280;8643;48.824;11.422;2023-02-04T12:03:26;98584.84;;;4.11;100.00
17054;BME280;8643;48.824;11.422;2023-02-04T12:05:59;98592.41;;;3.58;100.00
17054;BME280;8643;48.824;11.422;2023-02-04T12:08:33;98593.66;;;3.51;100.00
17054;BME280;8643;48.824;11.422;2023-02-04T12:11:06;98599.75;;;3.92;100.00
17054;BME280;8643;48.824;11.422;2023-02-04T12:13:47;98601.22;;;4.61;99.53
17054;BME280;8643;48.824;11.422;2023-02-04T12:16:17;98602.56;;;4.80;93.50
17054;BME280;8643;48.824;11.422;2023-02-04T12:18:46;98604.16;;;4.76;92.81
17054;BME280;8643;48.824;11.422;2023-02-04T12:21:16;98605.72;;;4.50;93.59
17054;BME280;8643;48.824;11.422;2023-02-04T12:23:45;98596.94;;;4.43;94.90
17054;BME280;8643;48.824;11.422;2023-02-04T12:26:18;98602.09;;;4.44;93.62
17054;BME280;8643;48.824;11.422;2023-02-04T12:28:47;98602.88;;;4.62;91.75
17054;BME280;8643;48.824;11.422;2023-02-04T12:31:15;98601.28;;;4.88;92.00
17054;BME280;8643;48.824;11.422;2023-02-04T12:33:44;98594.72;;;4.84;86.78
17054;BME280;8643;48.824;11.422;2023-02-04T12:36:12;98601.06;;;5.17;87.01
17054;BME280;8643;48.824;11.422;2023-02-04T12:38:42;98593.94;;;5.10;89.95
17054;BME280;8643;48.824;11.422;2023-02-04T12:41:10;98590.97;;;5.12;86.93
17054;BME280;8643;48.824;11.422;2023-02-04T12:43:39;98597.06;;;4.75;87.55
17054;BME280;8643;48.824;11.422;2023-02-04T12:46:07;98598.19;;;4.57;89.97
17054;BME280;8643;48.824;11.422;2023-02-04T12:48:36;98592.56;;;4.41;89.98
17054;BME280;8643;48.824;11.422;2023-02-04T12:51:07;98595.50;;;4.57;89.56
17054;BME280;8643;48.824;11.422;2023-02-04T12:53:35;98605.00;;;4.59;88.86
17054;BME280;8643;48.824;11.422;2023-02-04T12:56:06;98598.78;;;4.81;90.44
17054;BME280;8643;48.824;11.422;2023-02-04T12:58:34;98607.16;;;4.57;89.70
17054;BME280;8643;48.824;11.422;2023-02-04T13:01:03;98605.19;;;4.53;92.51
17054;BME280;8643;48.824;11.422;2023-02-04T13:03:32;98610.72;;;4.19;90.20
17054;BME280;8643;48.824;11.422;2023-02-04T13:06:01;98610.81;;;3.90;91.48
17054;BME280;8643;48.824;11.422;2023-02-04T13:08:29;98614.91;;;3.93;92.83
17054;BME280;8643;48.824;11.422;2023-02-04T13:10:58;98615.91;;;3.70;92.96
17054;BME280;8643;48.824;11.422;2023-02-04T13:13:28;98613.94;;;3.65;92.86
17054;BME280;8643;48.824;11.422;2023-02-04T13:15:56;98607.78;;;3.70;91.89
17054;BME280;8643;48.824;11.422;2023-02-04T13:18:25;98619.94;;;3.84;91.63